createdAt,value
2023-05-06T00:01:42.388Z,3.60
2023-05-06T00:04:09.975Z,3.07
2023-05-06T00:06:37.653Z,3.53
2023-05-06T00:09:04.920Z,2.80
2023-05-06T00:11:32.169Z,3.63
2023-05-06T00:13:59.317Z,3.10
2023-05-06T00:16:26.616Z,2.90
2023-05-06T00:18:53.837Z,2.00
2023-05-06T00:21:21.324Z,3.10
2023-05-06T00:23:48.763Z,4.00
2023-05-06T00:26:16.663Z,4.33
2023-05-06T00:28:44.581Z,2.03
2023-05-06T00:31:11.761Z,3.33
2023-05-06T00:33:38.998Z,3.03
2023-05-06T00:36:06.301Z,2.77
2023-05-06T00:38:33.487Z,4.23
2023-05-06T00:41:01.007Z,3.63
2023-05-06T00:43:28.451Z,2.80
2023-05-06T00:45:55.885Z,3.50
2023-05-06T00:48:23.178Z,2.67
2023-05-06T00:50:50.509Z,2.50
2023-05-06T00:53:19.707Z,4.13
2023-05-06T00:55:47.435Z,2.23
2023-05-06T00:58:15.558Z,2.53
2023-05-06T01:00:43.051Z,2.77
2023-05-06T01:03:10.421Z,3.87
2023-05-06T01:05:43.944Z,3.53
2023-05-06T01:08:18.255Z,3.70
2023-05-06T01:10:48.316Z,2.90
2023-05-06T01:13:24.860Z,2.87
2023-05-06T01:15:54.707Z,3.33
2023-05-06T01:18:22.824Z,2.70
2023-05-06T01:20:52.271Z,2.97
2023-05-06T01:23:20.235Z,3.40
2023-05-06T01:25:47.536Z,3.10
2023-05-06T01:28:14.921Z,4.03
2023-05-06T01:30:51.446Z,3.67
2023-05-06T01:33:27.687Z,2.53
2023-05-06T01:35:55.486Z,2.77
2023-05-06T01:38:35.140Z,4.07
2023-05-06T01:41:02.673Z,3.93
2023-05-06T01:43:31.067Z,3.87
2023-05-06T01:45:59.514Z,4.03
2023-05-06T01:48:28.882Z,3.33
2023-05-06T01:50:56.407Z,4.50
2023-05-06T01:53:23.577Z,3.10
2023-05-06T01:55:50.833Z,4.37
2023-05-06T01:58:18.081Z,3.47
2023-05-06T02:00:45.241Z,3.90
2023-05-06T02:03:12.913Z,3.07
2023-05-06T02:05:40.160Z,6.27
2023-05-06T02:08:07.334Z,3.90
2023-05-06T02:10:34.501Z,3.57
2023-05-06T02:13:01.837Z,4.93
2023-05-06T02:15:29.064Z,3.17
2023-05-06T02:17:57.244Z,3.27
2023-05-06T02:20:24.584Z,2.67
2023-05-06T02:22:51.752Z,5.43
2023-05-06T02:25:18.950Z,3.73
2023-05-06T02:27:46.107Z,4.90
2023-05-06T02:30:13.423Z,2.90
2023-05-06T02:32:41.886Z,2.87
2023-05-06T02:35:09.883Z,4.77
2023-05-06T02:37:37.451Z,3.80
2023-05-06T02:40:06.441Z,2.07
2023-05-06T02:42:35.772Z,4.80
2023-05-06T02:45:03.019Z,3.63
2023-05-06T02:47:30.498Z,3.43
2023-05-06T02:49:57.747Z,3.03
2023-05-06T02:52:25.182Z,4.00
2023-05-06T02:54:52.527Z,3.77
2023-05-06T02:57:19.733Z,4.17
2023-05-06T02:59:46.870Z,4.27
2023-05-06T03:02:14.055Z,4.40
2023-05-06T03:04:41.735Z,3.10
2023-05-06T03:07:08.958Z,5.10
2023-05-06T03:09:36.176Z,3.30
2023-05-06T03:12:03.367Z,3.50
2023-05-06T03:14:30.561Z,3.57
2023-05-06T03:16:57.821Z,3.50
2023-05-06T03:19:25.067Z,2.77
2023-05-06T03:21:52.240Z,3.67
2023-05-06T03:24:19.448Z,5.17
2023-05-06T03:26:46.642Z,3.47
2023-05-06T03:29:13.809Z,3.67
2023-05-06T03:31:41.115Z,3.43
2023-05-06T03:34:08.419Z,4.13
2023-05-06T03:36:35.745Z,4.37
2023-05-06T03:39:02.915Z,3.07
2023-05-06T03:41:30.260Z,3.20
2023-05-06T03:43:57.447Z,6.70
2023-05-06T03:46:24.637Z,3.57
2023-05-06T03:48:51.863Z,3.43
2023-05-06T03:51:19.242Z,4.13
2023-05-06T03:53:46.475Z,3.53
2023-05-06T03:56:13.947Z,2.77
2023-05-06T03:58:41.209Z,2.23
2023-05-06T04:01:08.541Z,4.00
2023-05-06T04:03:35.758Z,2.70
2023-05-06T04:06:03.044Z,3.10
2023-05-06T04:08:30.540Z,3.13
2023-05-06T04:10:58.155Z,3.50
2023-05-06T04:13:25.442Z,5.20
2023-05-06T04:15:52.785Z,3.83
2023-05-06T04:18:20.062Z,3.77
2023-05-06T04:20:48.383Z,4.40
2023-05-06T04:23:16.036Z,3.53
2023-05-06T04:25:48.706Z,3.13
2023-05-06T04:28:16.916Z,3.50
2023-05-06T04:30:44.728Z,2.67
2023-05-06T04:33:12.426Z,4.50
2023-05-06T04:35:40.049Z,4.93
2023-05-06T04:38:07.249Z,3.43
2023-05-06T04:40:36.548Z,5.70
2023-05-06T04:43:04.657Z,3.33
2023-05-06T04:45:34.408Z,4.27
2023-05-06T04:48:01.812Z,4.80
2023-05-06T04:50:29.077Z,4.30
2023-05-06T04:52:56.262Z,3.07
2023-05-06T04:55:23.511Z,2.30
2023-05-06T04:57:50.826Z,4.97
2023-05-06T05:00:19.201Z,3.43
2023-05-06T05:02:46.889Z,2.83
2023-05-06T05:05:14.793Z,3.37
2023-05-06T05:07:41.996Z,3.87
2023-05-06T05:10:10.369Z,2.90
2023-05-06T05:12:37.689Z,2.50
2023-05-06T05:15:05.091Z,4.43
2023-05-06T05:17:32.367Z,4.07
2023-05-06T05:19:59.632Z,5.83
2023-05-06T05:22:26.805Z,4.37
2023-05-06T05:24:53.970Z,2.70
2023-05-06T05:27:21.102Z,4.03
2023-05-06T05:29:48.583Z,4.47
2023-05-06T05:32:16.424Z,2.57
2023-05-06T05:34:43.592Z,3.13
2023-05-06T05:37:11.385Z,4.03
2023-05-06T05:39:38.579Z,4.13
2023-05-06T05:42:05.926Z,3.93
2023-05-06T05:44:33.410Z,4.77
2023-05-06T05:47:00.621Z,2.73
2023-05-06T05:49:27.810Z,3.73
2023-05-06T05:51:54.971Z,5.13
2023-05-06T05:54:22.129Z,3.80
2023-05-06T05:56:50.471Z,6.17
2023-05-06T05:59:17.636Z,3.40
2023-05-06T06:01:44.978Z,3.37
2023-05-06T06:04:12.243Z,3.53
2023-05-06T06:06:39.527Z,4.57
2023-05-06T06:09:07.274Z,4.17
2023-05-06T06:11:34.426Z,5.00
2023-05-06T06:14:01.726Z,4.87
2023-05-06T06:16:28.996Z,3.93
2023-05-06T06:18:56.194Z,4.70
2023-05-06T06:21:23.414Z,3.97
2023-05-06T06:23:50.638Z,3.30
2023-05-06T06:26:17.794Z,3.57
2023-05-06T06:28:45.074Z,3.60
2023-05-06T06:31:12.336Z,2.77
2023-05-06T06:33:39.501Z,3.43
2023-05-06T06:36:06.821Z,4.37
2023-05-06T06:38:34.007Z,5.37
2023-05-06T06:41:01.167Z,5.60
2023-05-06T06:43:28.408Z,5.43
2023-05-06T06:45:56.370Z,2.83
2023-05-06T06:48:23.678Z,3.67
2023-05-06T06:50:50.982Z,4.27
2023-05-06T06:53:18.167Z,2.73
2023-05-06T06:55:45.810Z,4.47
2023-05-06T06:58:13.122Z,3.73
2023-05-06T07:00:40.451Z,3.73
2023-05-06T07:03:07.797Z,5.93
2023-05-06T07:05:34.967Z,4.03
2023-05-06T07:08:02.224Z,4.87
2023-05-06T07:10:29.467Z,4.30
2023-05-06T07:12:56.755Z,5.20
2023-05-06T07:15:24.400Z,4.40
2023-05-06T07:17:51.595Z,4.30
2023-05-06T07:20:18.894Z,4.70
2023-05-06T07:22:46.064Z,2.63
2023-05-06T07:25:13.438Z,5.77
2023-05-06T07:27:40.917Z,5.07
2023-05-06T07:30:08.520Z,4.70
2023-05-06T07:32:35.927Z,3.90
2023-05-06T07:35:03.297Z,3.33
2023-05-06T07:37:30.598Z,3.60
2023-05-06T07:39:58.300Z,4.13
2023-05-06T07:42:25.598Z,3.80
2023-05-06T07:44:52.808Z,4.10
2023-05-06T07:47:28.137Z,5.47
2023-05-06T07:49:55.996Z,3.10
2023-05-06T07:52:23.609Z,2.60
2023-05-06T07:54:50.828Z,4.90
2023-05-06T07:57:18.181Z,5.27
2023-05-06T07:59:48.047Z,3.60
2023-05-06T08:02:15.548Z,2.93
2023-05-06T08:04:43.206Z,4.90
2023-05-06T08:07:11.097Z,3.57
2023-05-06T08:09:38.415Z,4.13
2023-05-06T08:12:05.838Z,3.17
2023-05-06T08:14:33.100Z,3.30
2023-05-06T08:17:00.414Z,3.83
2023-05-06T08:19:27.753Z,3.63
2023-05-06T08:21:55.099Z,5.00
2023-05-06T08:24:22.290Z,4.43
2023-05-06T08:26:49.542Z,4.30
2023-05-06T08:29:16.841Z,3.93
2023-05-06T08:31:44.361Z,3.83
2023-05-06T08:34:11.619Z,3.00
2023-05-06T08:36:39.083Z,4.07
2023-05-06T08:39:06.318Z,4.83
2023-05-06T08:41:35.461Z,3.27
2023-05-06T08:44:02.795Z,4.37
2023-05-06T08:46:31.114Z,3.57
2023-05-06T08:48:59.013Z,3.10
2023-05-06T08:51:31.742Z,3.13
2023-05-06T08:54:01.504Z,4.10
2023-05-06T08:56:30.894Z,3.07
2023-05-06T08:58:59.026Z,3.23
2023-05-06T09:01:27.811Z,5.47
2023-05-06T09:03:56.087Z,3.13
2023-05-06T09:06:24.239Z,4.17
2023-05-06T09:08:51.597Z,4.53
2023-05-06T09:11:23.248Z,3.57
2023-05-06T09:13:51.051Z,4.50
2023-05-06T09:16:31.063Z,4.30
2023-05-06T09:18:59.555Z,3.73
2023-05-06T09:21:37.178Z,4.23
2023-05-06T09:24:05.374Z,3.03
2023-05-06T09:26:33.492Z,4.40
2023-05-06T09:29:01.175Z,4.83
2023-05-06T09:31:29.418Z,3.43
2023-05-06T09:33:57.710Z,4.50
2023-05-06T09:36:25.736Z,3.80
2023-05-06T09:38:54.005Z,4.03
2023-05-06T09:41:22.843Z,5.37
2023-05-06T09:43:51.087Z,4.50
2023-05-06T09:46:18.492Z,4.53
2023-05-06T09:48:46.802Z,4.67
2023-05-06T09:51:14.200Z,4.43
2023-05-06T09:53:41.623Z,3.43
2023-05-06T09:56:09.386Z,5.30
2023-05-06T09:58:37.174Z,4.50
2023-05-06T10:01:05.787Z,4.80
2023-05-06T10:03:33.547Z,5.27
2023-05-06T10:06:06.022Z,3.37
2023-05-06T10:08:35.171Z,4.80
2023-05-06T10:11:02.567Z,3.60
2023-05-06T10:13:30.538Z,5.93
2023-05-06T10:15:57.957Z,3.40
2023-05-06T10:18:26.719Z,3.33
2023-05-06T10:20:55.327Z,5.20
2023-05-06T10:23:22.477Z,3.27
2023-05-06T10:25:52.661Z,4.63
2023-05-06T10:28:30.380Z,3.00
2023-05-06T10:30:59.616Z,5.43
2023-05-06T10:33:27.249Z,4.65
2023-05-06T10:36:13.077Z,3.57
2023-05-06T10:38:44.865Z,3.27
2023-05-06T10:41:13.220Z,2.87
2023-05-06T10:43:41.590Z,3.33
2023-05-06T10:46:16.412Z,3.87
2023-05-06T10:49:02.584Z,3.33
2023-05-06T10:51:29.840Z,3.13
2023-05-06T10:54:04.200Z,3.30
2023-05-06T10:56:32.352Z,3.67
2023-05-06T10:59:05.975Z,2.73
2023-05-06T11:01:33.175Z,3.33
2023-05-06T11:04:05.271Z,3.60
2023-05-06T11:06:51.812Z,3.40
2023-05-06T11:09:22.875Z,3.10
2023-05-06T11:12:00.929Z,4.17
2023-05-06T11:14:38.243Z,3.10
2023-05-06T11:17:06.736Z,3.60
2023-05-06T11:19:34.856Z,4.07
2023-05-06T11:22:03.730Z,4.43
2023-05-06T11:24:32.268Z,4.27
2023-05-06T11:27:00.462Z,4.10
2023-05-06T11:29:27.872Z,3.00
2023-05-06T11:31:55.162Z,2.57
2023-05-06T11:34:26.112Z,3.77
2023-05-06T11:36:55.864Z,4.10
2023-05-06T11:39:23.095Z,3.40
2023-05-06T11:41:50.687Z,4.17
2023-05-06T11:44:27.975Z,5.13
2023-05-06T11:46:57.511Z,2.80
2023-05-06T11:49:25.857Z,4.85
2023-05-06T11:51:53.282Z,2.92
2023-05-06T11:54:22.816Z,4.03
2023-05-06T11:56:53.941Z,4.72
2023-05-06T11:59:28.712Z,5.85
2023-05-06T12:01:57.442Z,3.00
2023-05-06T12:04:24.693Z,3.90
2023-05-06T12:06:51.963Z,2.95
2023-05-06T12:09:22.106Z,4.20
2023-05-06T12:11:49.789Z,3.47
2023-05-06T12:14:17.010Z,4.00
2023-05-06T12:16:44.304Z,4.57
2023-05-06T12:19:11.622Z,4.20
2023-05-06T12:21:39.299Z,4.85
2023-05-06T12:24:06.843Z,3.95
2023-05-06T12:26:49.943Z,3.50
2023-05-06T12:29:17.801Z,3.92
2023-05-06T12:31:47.255Z,3.13
2023-05-06T12:34:16.263Z,4.57
2023-05-06T12:36:44.193Z,4.35
2023-05-06T12:39:14.535Z,3.15
2023-05-06T12:41:46.012Z,5.07
2023-05-06T12:44:35.222Z,3.70
2023-05-06T12:47:05.604Z,3.85
2023-05-06T12:49:52.076Z,2.60
2023-05-06T12:52:23.778Z,2.95
2023-05-06T12:54:52.651Z,4.28
2023-05-06T12:57:20.407Z,4.47
2023-05-06T12:59:47.777Z,3.80
2023-05-06T13:02:15.228Z,3.40
2023-05-06T13:04:42.559Z,2.28
2023-05-06T13:07:09.757Z,3.80
2023-05-06T13:09:36.917Z,2.75
2023-05-06T13:12:05.045Z,2.35
2023-05-06T13:14:32.234Z,3.38
2023-05-06T13:17:01.094Z,4.13
2023-05-06T13:19:32.818Z,3.30
2023-05-06T13:22:01.382Z,4.40
2023-05-06T13:24:28.984Z,2.92
2023-05-06T13:26:57.329Z,3.55
2023-05-06T13:29:24.956Z,3.10
2023-05-06T13:31:52.402Z,2.97
2023-05-06T13:34:19.688Z,4.75
2023-05-06T13:36:49.270Z,3.88
2023-05-06T13:39:16.550Z,3.35
2023-05-06T13:41:43.889Z,3.47
2023-05-06T13:44:11.063Z,3.10
2023-05-06T13:46:38.393Z,3.40
2023-05-06T13:49:05.790Z,4.28
2023-05-06T13:51:34.563Z,3.42
2023-05-06T13:54:02.104Z,3.70
2023-05-06T13:56:29.308Z,4.70
2023-05-06T13:58:56.563Z,3.38
2023-05-06T14:01:24.267Z,3.60
2023-05-06T14:03:51.511Z,4.85
2023-05-06T14:06:19.087Z,3.55
2023-05-06T14:08:46.846Z,5.30
2023-05-06T14:11:14.180Z,4.20
2023-05-06T14:13:41.335Z,4.55
2023-05-06T14:16:08.642Z,4.85
2023-05-06T14:18:35.920Z,4.20
2023-05-06T14:21:03.669Z,3.42
2023-05-06T14:23:30.961Z,3.85
2023-05-06T14:25:58.186Z,4.13
2023-05-06T14:28:25.384Z,4.17
2023-05-06T14:30:52.635Z,3.73
2023-05-06T14:33:19.855Z,4.07
2023-05-06T14:35:47.466Z,4.13
2023-05-06T14:38:15.190Z,3.27
2023-05-06T14:40:42.348Z,4.03
2023-05-06T14:43:09.544Z,3.97
2023-05-06T14:45:36.775Z,4.63
2023-05-06T14:48:04.260Z,5.43
2023-05-06T14:50:31.494Z,3.60
2023-05-06T14:52:58.732Z,4.33
2023-05-06T14:55:25.974Z,5.23
2023-05-06T14:57:53.152Z,3.63
2023-05-06T15:00:20.592Z,5.17
2023-05-06T15:02:47.931Z,4.67
2023-05-06T15:05:15.522Z,5.23
2023-05-06T15:07:42.787Z,3.93
2023-05-06T15:10:10.153Z,3.63
2023-05-06T15:12:37.672Z,4.23
2023-05-06T15:15:05.664Z,6.63
2023-05-06T15:17:32.944Z,4.70
2023-05-06T15:20:00.557Z,4.57
2023-05-06T15:22:27.818Z,5.10
2023-05-06T15:24:54.971Z,5.87
2023-05-06T15:27:22.158Z,4.80
2023-05-06T15:29:49.496Z,5.43
2023-05-06T15:32:16.711Z,4.63
2023-05-06T15:34:43.926Z,4.53
2023-05-06T15:37:11.264Z,6.17
2023-05-06T15:39:38.582Z,6.00
2023-05-06T15:42:06.237Z,5.00
2023-05-06T15:44:34.063Z,5.80
2023-05-06T15:47:01.273Z,4.38
2023-05-06T15:52:00.611Z,5.03
2023-05-06T15:54:28.507Z,5.70
2023-05-06T15:56:56.456Z,4.45
2023-05-06T15:59:23.970Z,4.47
2023-05-06T16:02:25.252Z,5.03
2023-05-06T16:04:38.875Z,3.72
2023-05-06T16:07:06.217Z,4.38
2023-05-06T16:09:33.374Z,4.72
2023-05-06T16:12:00.610Z,4.70
2023-05-06T16:14:27.825Z,6.18
2023-05-06T16:16:55.114Z,4.07
2023-05-06T16:19:22.285Z,5.15
2023-05-06T16:21:49.508Z,5.05
2023-05-06T16:24:16.718Z,6.65
2023-05-06T16:26:43.901Z,4.43
2023-05-06T16:29:11.278Z,5.35
2023-05-06T16:31:38.618Z,5.85
2023-05-06T16:36:33.363Z,5.50
2023-05-06T16:39:00.598Z,4.47
2023-05-06T16:41:27.805Z,6.13
2023-05-06T16:43:55.107Z,5.97
2023-05-06T16:46:24.270Z,6.03
2023-05-06T16:48:52.159Z,5.45
2023-05-06T16:51:19.672Z,5.53
2023-05-06T16:53:47.216Z,5.78
2023-05-06T16:56:14.449Z,4.20
2023-05-06T16:58:42.788Z,6.40
2023-05-06T17:01:11.247Z,5.28
2023-05-06T17:03:38.672Z,5.03
2023-05-06T17:06:06.055Z,4.65
2023-05-06T17:08:36.339Z,4.03
2023-05-06T17:11:06.733Z,5.90
2023-05-06T17:13:34.235Z,6.03
2023-05-06T17:16:01.489Z,5.45
2023-05-06T17:18:28.692Z,5.38
2023-05-06T17:20:57.152Z,4.43
2023-05-06T17:23:24.962Z,6.00
2023-05-06T17:25:52.331Z,5.82
2023-05-06T17:28:19.502Z,5.30
2023-05-06T17:30:46.897Z,5.18
2023-05-06T17:33:14.191Z,4.28
2023-05-06T17:35:41.349Z,5.50
2023-05-06T17:38:08.875Z,4.05
2023-05-06T17:40:36.070Z,6.40
2023-05-06T17:43:03.284Z,5.40
2023-05-06T17:45:30.826Z,5.57
2023-05-06T17:47:58.042Z,5.77
2023-05-06T17:50:25.314Z,4.97
2023-05-06T17:52:54.195Z,5.87
2023-05-06T17:55:21.965Z,4.17
2023-05-06T17:57:49.552Z,6.43
2023-05-06T18:00:17.352Z,6.07
2023-05-06T18:02:44.846Z,5.43
2023-05-06T18:05:13.512Z,5.40
2023-05-06T18:07:41.080Z,3.40
2023-05-06T18:10:08.615Z,5.17
2023-05-06T18:12:35.873Z,4.73
2023-05-06T18:15:03.180Z,3.73
2023-05-06T18:17:30.643Z,5.20
2023-05-06T18:19:57.872Z,4.43
2023-05-06T18:22:25.070Z,3.77
2023-05-06T18:24:55.235Z,4.67
2023-05-06T18:27:23.080Z,4.07
2023-05-06T18:29:50.362Z,5.47
2023-05-06T18:32:18.193Z,5.87
2023-05-06T18:34:45.408Z,6.03
2023-05-06T18:37:12.677Z,4.90
2023-05-06T18:39:43.259Z,4.47
2023-05-06T18:42:10.553Z,5.10
2023-05-06T18:44:38.063Z,4.40
2023-05-06T18:47:05.337Z,5.17
2023-05-06T18:49:32.561Z,5.47
2023-05-06T18:51:59.728Z,6.07
2023-05-06T18:54:26.916Z,4.30
2023-05-06T18:56:54.823Z,3.70
2023-05-06T18:59:22.254Z,5.60
2023-05-06T19:01:49.446Z,4.00
2023-05-06T19:04:16.658Z,5.30
2023-05-06T19:06:43.827Z,4.90
2023-05-06T19:09:11.431Z,5.27
2023-05-06T19:11:38.830Z,5.10
2023-05-06T19:14:06.017Z,4.97
2023-05-06T19:16:33.287Z,5.07
2023-05-06T19:19:02.665Z,6.53
2023-05-06T19:21:29.939Z,5.63
2023-05-06T19:23:59.775Z,4.67
2023-05-06T19:26:27.428Z,5.87
2023-05-06T19:28:54.671Z,5.73
2023-05-06T19:31:21.912Z,7.20
2023-05-06T19:33:49.244Z,4.87
2023-05-06T19:36:16.843Z,6.70
2023-05-06T19:38:44.090Z,4.77
2023-05-06T19:41:11.269Z,5.57
2023-05-06T19:43:44.928Z,5.17
2023-05-06T19:46:12.625Z,5.60
2023-05-06T19:48:39.912Z,4.63
2023-05-06T19:51:07.150Z,5.17
2023-05-06T19:53:34.653Z,5.63
2023-05-06T19:56:11.878Z,4.30
2023-05-06T19:58:39.398Z,5.33
2023-05-06T20:01:06.601Z,6.63
2023-05-06T20:03:34.271Z,5.07
2023-05-06T20:06:01.504Z,5.73
2023-05-06T20:08:28.734Z,6.60
2023-05-06T20:10:55.994Z,5.30
2023-05-06T20:13:23.351Z,4.70
2023-05-06T20:15:50.998Z,7.27
2023-05-06T20:18:18.316Z,4.87
2023-05-06T20:20:47.133Z,6.77
2023-05-06T20:23:14.343Z,6.90
2023-05-06T20:25:41.635Z,4.63
2023-05-06T20:28:08.874Z,5.10
2023-05-06T20:30:36.231Z,5.87
2023-05-06T20:33:03.635Z,5.40
2023-05-06T20:35:30.877Z,5.70
2023-05-06T20:37:58.078Z,4.87
2023-05-06T20:40:25.311Z,4.83
2023-05-06T20:42:52.506Z,6.40
2023-05-06T20:45:19.709Z,5.47
2023-05-06T20:47:46.914Z,5.17
2023-05-06T20:50:17.202Z,6.17
2023-05-06T20:52:45.924Z,7.13
2023-05-06T20:55:14.784Z,6.47
2023-05-06T20:57:45.495Z,6.20
2023-05-06T21:00:12.951Z,5.90
2023-05-06T21:02:42.000Z,6.23
2023-05-06T21:05:10.047Z,6.50
2023-05-06T21:07:37.544Z,8.93
2023-05-06T21:10:06.146Z,7.60
2023-05-06T21:12:33.778Z,6.47
2023-05-06T21:15:01.268Z,7.73
2023-05-06T21:17:29.264Z,6.73
2023-05-06T21:19:56.661Z,6.87
2023-05-06T21:22:24.497Z,8.20
2023-05-06T21:24:52.155Z,6.10
2023-05-06T21:27:19.352Z,8.07
2023-05-06T21:29:46.660Z,6.90
2023-05-06T21:32:13.900Z,7.77
2023-05-06T21:34:41.100Z,7.63
2023-05-06T21:37:08.321Z,6.43
2023-05-06T21:39:36.039Z,6.07
2023-05-06T21:42:03.236Z,6.50
2023-05-06T21:44:30.518Z,10.70
2023-05-06T21:46:59.870Z,7.10
2023-05-06T21:49:27.082Z,6.70
2023-05-06T21:51:54.303Z,6.87
2023-05-06T21:54:21.636Z,8.67
2023-05-06T21:56:48.852Z,8.50
2023-05-06T21:59:15.984Z,8.30
2023-05-06T22:01:43.166Z,10.97
2023-05-06T22:04:13.074Z,8.00
2023-05-06T22:06:41.053Z,8.03
2023-05-06T22:09:11.354Z,8.83
2023-05-06T22:11:38.849Z,7.17
2023-05-06T22:14:06.756Z,7.87
2023-05-06T22:16:35.596Z,6.57
2023-05-06T22:19:04.055Z,7.43
2023-05-06T22:21:32.631Z,7.70
2023-05-06T22:24:00.038Z,7.27
2023-05-06T22:26:30.293Z,10.27
2023-05-06T22:28:57.578Z,7.83
2023-05-06T22:31:25.186Z,6.00
2023-05-06T22:33:55.593Z,9.10
2023-05-06T22:36:22.934Z,7.63
2023-05-06T22:38:50.171Z,6.77
2023-05-06T22:41:18.344Z,7.30
2023-05-06T22:43:45.531Z,7.80
2023-05-06T22:46:12.841Z,6.73
2023-05-06T22:48:40.592Z,7.77
2023-05-06T22:51:07.830Z,8.97
2023-05-06T22:53:35.033Z,7.80
2023-05-06T22:56:02.277Z,5.77
2023-05-06T22:58:29.716Z,5.60
2023-05-06T23:00:57.044Z,7.83
2023-05-06T23:03:24.337Z,7.20
2023-05-06T23:05:52.266Z,6.63
2023-05-06T23:08:19.468Z,7.20
2023-05-06T23:10:46.934Z,7.17
2023-05-06T23:13:14.154Z,6.23
2023-05-06T23:15:41.467Z,6.33
2023-05-06T23:18:08.719Z,5.63
2023-05-06T23:20:35.952Z,6.70
2023-05-06T23:23:03.605Z,5.20
2023-05-06T23:25:30.819Z,5.13
2023-05-06T23:27:58.065Z,6.23
2023-05-06T23:30:25.391Z,4.43
2023-05-06T23:32:52.594Z,5.43
2023-05-06T23:35:19.836Z,6.43
2023-05-06T23:37:47.082Z,5.70
2023-05-06T23:40:14.519Z,6.17
2023-05-06T23:42:41.754Z,5.90
2023-05-06T23:45:09.500Z,6.27
2023-05-06T23:47:36.927Z,5.90
2023-05-06T23:50:04.272Z,5.73
2023-05-06T23:52:31.989Z,4.27
2023-05-06T23:54:59.143Z,5.13
2023-05-06T23:57:26.294Z,4.90
2023-05-06T23:59:53.493Z,6.23
